createdAt,value
2022-12-08T00:01:21.654Z,99111.19
2022-12-08T00:03:48.711Z,99114.44
2022-12-08T00:06:59.431Z,99108.81
2022-12-08T00:09:34.722Z,99106.66
2022-12-08T00:12:06.073Z,99103.91
2022-12-08T00:14:38.510Z,99107.41
2022-12-08T00:17:07.456Z,99100.53
2022-12-08T00:19:34.159Z,99099.59
2022-12-08T00:22:00.792Z,99111.44
2022-12-08T00:24:32.260Z,99103.91
2022-12-08T00:26:58.958Z,99101.53
2022-12-08T00:29:25.561Z,99098.19
2022-12-08T00:31:52.594Z,99086.38
2022-12-08T00:34:19.802Z,99082.66
2022-12-08T00:36:46.621Z,99085.56
2022-12-08T00:39:15.307Z,99090.84
2022-12-08T00:42:00.613Z,99092.09
2022-12-08T00:44:27.258Z,99097.69
2022-12-08T00:46:53.973Z,99086.03
2022-12-08T00:49:21.038Z,99099.81
2022-12-08T00:51:47.729Z,99105.72
2022-12-08T00:54:14.969Z,99092.91
2022-12-08T00:56:41.599Z,99101.38
2022-12-08T00:59:08.532Z,99098.69
2022-12-08T01:01:35.865Z,99097.88
2022-12-08T01:04:11.143Z,99100.59
2022-12-08T01:06:39.004Z,99102.03
2022-12-08T01:09:07.234Z,99093.38
2022-12-08T01:11:34.894Z,99103.59
2022-12-08T01:14:02.031Z,99099.13
2022-12-08T01:16:31.505Z,99101.06
2022-12-08T01:18:59.819Z,99096.28
2022-12-08T01:21:27.042Z,99100.91
2022-12-08T01:23:54.640Z,99093.06
2022-12-08T01:26:21.812Z,99101.66
2022-12-08T01:28:48.782Z,99102.13
2022-12-08T01:31:18.753Z,99105.59
2022-12-08T01:33:46.395Z,99103.53
2022-12-08T01:36:24.980Z,99093.63
2022-12-08T01:38:52.469Z,99095.06
2022-12-08T01:41:22.214Z,99089.44
2022-12-08T01:44:24.070Z,99087.25
2022-12-08T01:46:54.007Z,99085.00
2022-12-08T01:49:23.477Z,99067.91
2022-12-08T01:52:22.123Z,99067.41
2022-12-08T01:54:57.226Z,99066.78
2022-12-08T01:57:33.356Z,99069.34
2022-12-08T02:00:05.158Z,99065.53
2022-12-08T02:02:40.212Z,99059.44
2022-12-08T02:05:07.623Z,99060.28
2022-12-08T02:07:35.697Z,99059.63
2022-12-08T02:10:03.843Z,99049.56
2022-12-08T02:12:30.759Z,99050.19
2022-12-08T02:15:01.854Z,99050.38
2022-12-08T02:17:53.793Z,99039.81
2022-12-08T02:21:03.789Z,99043.97
2022-12-08T02:23:53.679Z,99039.97
2022-12-08T02:26:38.808Z,99041.09
2022-12-08T02:29:14.609Z,99037.69
2022-12-08T02:31:59.987Z,99029.06
2022-12-08T02:34:49.414Z,99027.13
2022-12-08T02:37:37.253Z,99024.09
2022-12-08T02:40:21.960Z,99015.13
2022-12-08T02:43:03.730Z,99022.00
2022-12-08T02:45:43.358Z,99018.00
2022-12-08T02:48:10.466Z,99015.94
2022-12-08T02:50:37.102Z,99011.13
2022-12-08T02:55:45.502Z,99016.72
2022-12-08T02:58:21.089Z,99013.84
2022-12-08T03:00:50.590Z,99008.41
2022-12-08T03:03:28.207Z,99005.69
2022-12-08T03:06:06.710Z,99015.50
2022-12-08T03:08:37.263Z,99014.84
2022-12-08T03:11:08.737Z,99013.06
2022-12-08T03:13:45.768Z,99006.34
2022-12-08T03:16:16.775Z,99010.19
2022-12-08T03:18:48.830Z,99014.53
2022-12-08T03:21:18.270Z,98998.34
2022-12-08T03:23:48.056Z,99000.59
2022-12-08T03:26:29.450Z,98998.50
2022-12-08T03:28:56.655Z,98989.22
2022-12-08T03:31:27.180Z,98990.34
2022-12-08T03:33:56.660Z,98989.69
2022-12-08T03:36:24.146Z,98985.56
2022-12-08T03:38:53.674Z,98984.44
2022-12-08T03:41:22.229Z,98986.34
2022-12-08T03:43:50.533Z,98971.63
2022-12-08T03:46:19.266Z,98971.97
2022-12-08T03:48:45.950Z,98973.38
2022-12-08T03:51:12.688Z,98973.06
2022-12-08T03:53:39.552Z,98974.81
2022-12-08T03:56:27.185Z,98973.84
2022-12-08T03:58:54.791Z,98976.56
2022-12-08T04:01:22.558Z,98970.34
2022-12-08T04:03:49.629Z,98964.56
2022-12-08T04:06:16.928Z,98968.09
2022-12-08T04:08:43.736Z,98957.34
2022-12-08T04:11:11.011Z,98958.03
2022-12-08T04:13:39.695Z,98960.06
2022-12-08T04:16:07.759Z,98952.25
2022-12-08T04:18:35.588Z,98959.44
2022-12-08T04:21:02.422Z,98953.69
2022-12-08T04:23:29.018Z,98954.16
2022-12-08T04:25:55.628Z,98949.34
2022-12-08T04:28:22.232Z,98945.19
2022-12-08T04:30:49.742Z,98939.41
2022-12-08T04:33:16.732Z,98945.34
2022-12-08T04:35:43.472Z,98938.75
2022-12-08T04:38:10.015Z,98941.81
2022-12-08T04:40:36.634Z,98942.28
2022-12-08T04:43:03.252Z,98939.56
2022-12-08T04:45:29.869Z,98945.94
2022-12-08T04:47:56.523Z,98939.84
2022-12-08T04:50:23.095Z,98945.47
2022-12-08T04:52:49.739Z,98932.97
2022-12-08T04:55:16.378Z,98933.31
2022-12-08T04:57:43.023Z,98937.50
2022-12-08T05:00:10.521Z,98941.03
2022-12-08T05:02:37.663Z,98937.03
2022-12-08T05:05:04.903Z,98931.13
2022-12-08T05:07:31.494Z,98928.41
2022-12-08T05:09:58.200Z,98923.75
2022-12-08T05:12:25.106Z,98922.63
2022-12-08T05:14:51.806Z,98925.50
2022-12-08T05:17:18.966Z,98916.25
2022-12-08T05:19:45.539Z,98918.81
2022-12-08T05:22:12.193Z,98924.72
2022-12-08T05:24:43.982Z,98921.69
2022-12-08T05:27:13.703Z,98916.06
2022-12-08T05:29:40.296Z,98922.78
2022-12-08T05:32:06.933Z,98919.69
2022-12-08T05:34:33.689Z,98925.22
2022-12-08T05:37:00.280Z,98920.75
2022-12-08T05:39:26.881Z,98928.47
2022-12-08T05:41:53.440Z,98931.19
2022-12-08T05:44:20.002Z,98931.84
2022-12-08T05:46:46.551Z,98922.09
2022-12-08T05:49:13.175Z,98926.53
2022-12-08T05:51:39.828Z,98923.03
2022-12-08T05:54:06.410Z,98931.00
2022-12-08T05:56:33.161Z,98930.84
2022-12-08T05:58:59.755Z,98937.25
2022-12-08T06:01:29.058Z,98939.47
2022-12-08T06:03:57.867Z,98933.72
2022-12-08T06:06:24.980Z,98930.50
2022-12-08T06:08:51.990Z,98932.09
2022-12-08T06:11:29.934Z,98926.66
2022-12-08T06:13:58.020Z,98935.16
2022-12-08T06:16:26.617Z,98929.69
2022-12-08T06:18:53.307Z,98928.41
2022-12-08T06:21:20.558Z,98938.19
2022-12-08T06:23:51.982Z,98938.34
2022-12-08T06:26:19.638Z,98930.06
2022-12-08T06:28:46.318Z,98933.09
2022-12-08T06:31:31.190Z,98924.13
2022-12-08T06:33:57.924Z,98920.88
2022-12-08T06:36:27.258Z,98920.34
2022-12-08T06:38:53.956Z,98917.16
2022-12-08T06:41:20.835Z,98921.75
2022-12-08T06:43:47.471Z,98921.38
2022-12-08T06:46:17.429Z,98920.66
2022-12-08T06:48:44.627Z,98921.53
2022-12-08T06:51:14.403Z,98920.88
2022-12-08T06:53:42.017Z,98921.50
2022-12-08T06:56:09.451Z,98915.78
2022-12-08T06:58:36.187Z,98908.81
2022-12-08T07:01:13.652Z,98920.81
2022-12-08T07:03:40.934Z,98919.25
2022-12-08T07:06:07.703Z,98922.44
2022-12-08T07:08:35.108Z,98924.25
2022-12-08T07:11:08.116Z,98925.25
2022-12-08T07:13:34.754Z,98932.28
2022-12-08T07:16:01.358Z,98935.34
2022-12-08T07:18:27.924Z,98935.84
2022-12-08T07:20:54.487Z,98925.13
2022-12-08T07:23:21.040Z,98934.41
2022-12-08T07:25:47.597Z,98938.94
2022-12-08T07:28:14.226Z,98933.22
2022-12-08T07:30:40.890Z,98932.28
2022-12-08T07:33:07.515Z,98936.91
2022-12-08T07:35:35.197Z,98933.22
2022-12-08T07:38:02.539Z,98927.28
2022-12-08T07:40:29.117Z,98933.03
2022-12-08T07:42:55.763Z,98937.06
2022-12-08T07:45:25.667Z,98937.25
2022-12-08T07:47:56.451Z,98930.38
2022-12-08T07:50:23.044Z,98932.16
2022-12-08T07:52:49.846Z,98932.44
2022-12-08T07:55:16.458Z,98926.38
2022-12-08T07:57:43.131Z,98918.34
2022-12-08T08:00:11.044Z,98915.06
2022-12-08T08:02:37.800Z,98915.94
2022-12-08T08:05:04.834Z,98912.38
2022-12-08T08:07:32.323Z,98917.47
2022-12-08T08:09:58.976Z,98911.38
2022-12-08T08:12:33.137Z,98913.31
2022-12-08T08:15:01.461Z,98920.78
2022-12-08T08:17:29.726Z,98913.69
2022-12-08T08:19:56.842Z,98909.34
2022-12-08T08:22:25.018Z,98916.72
2022-12-08T08:24:51.596Z,98913.19
2022-12-08T08:27:18.437Z,98918.28
2022-12-08T08:29:45.042Z,98917.56
2022-12-08T08:32:11.685Z,98921.84
2022-12-08T08:34:38.439Z,98919.41
2022-12-08T08:37:05.033Z,98923.03
2022-12-08T08:39:31.979Z,98919.81
2022-12-08T08:41:58.811Z,98918.81
2022-12-08T08:44:25.438Z,98916.13
2022-12-08T08:46:52.249Z,98912.72
2022-12-08T08:49:18.948Z,98915.63
2022-12-08T08:51:46.149Z,98913.25
2022-12-08T08:54:12.782Z,98922.03
2022-12-08T08:56:40.450Z,98910.03
2022-12-08T08:59:07.064Z,98909.91
2022-12-08T09:01:34.288Z,98912.84
2022-12-08T09:04:01.652Z,98912.16
2022-12-08T09:06:28.706Z,98920.31
2022-12-08T09:08:55.509Z,98910.25
2022-12-08T09:11:23.791Z,98911.72
2022-12-08T09:13:52.258Z,98923.53
2022-12-08T09:16:19.696Z,98933.50
2022-12-08T09:18:46.441Z,98928.06
2022-12-08T09:21:20.257Z,98921.22
2022-12-08T09:23:46.707Z,98920.16
2022-12-08T09:26:13.310Z,98913.38
2022-12-08T09:28:40.222Z,98907.47
2022-12-08T09:31:06.860Z,98913.28
2022-12-08T09:33:33.460Z,98907.91
2022-12-08T09:36:04.103Z,98909.19
2022-12-08T09:38:31.222Z,98915.44
2022-12-08T09:40:58.420Z,98905.22
2022-12-08T09:43:46.751Z,98904.41
2022-12-08T09:46:17.437Z,98899.91
2022-12-08T09:48:51.943Z,98891.06
2022-12-08T09:51:18.668Z,98882.88
2022-12-08T09:53:58.023Z,98879.69
2022-12-08T09:56:30.991Z,98874.88
2022-12-08T09:59:17.079Z,98874.41
2022-12-08T10:01:44.017Z,98873.81
2022-12-08T10:04:22.453Z,98871.44
2022-12-08T10:07:11.971Z,98861.81
2022-12-08T10:10:00.515Z,98860.63
2022-12-08T10:12:39.080Z,98857.09
2022-12-08T10:15:42.623Z,98855.63
2022-12-08T10:18:37.810Z,98852.56
2022-12-08T10:21:19.807Z,98851.19
2022-12-08T10:23:51.444Z,98838.03
2022-12-08T10:26:20.710Z,98838.19
2022-12-08T10:28:47.940Z,98839.50
2022-12-08T10:31:20.066Z,98833.50
2022-12-08T10:33:51.991Z,98827.94
2022-12-08T10:36:18.560Z,98826.03
2022-12-08T10:38:45.136Z,98825.03
2022-12-08T10:41:11.664Z,98828.56
2022-12-08T10:43:59.512Z,98817.78
2022-12-08T10:46:28.265Z,98807.88
2022-12-08T10:49:10.245Z,98809.50
2022-12-08T10:51:39.739Z,98793.75
2022-12-08T10:54:26.629Z,98791.34
2022-12-08T10:56:56.011Z,98784.09
2022-12-08T10:59:25.519Z,98772.22
2022-12-08T11:01:55.111Z,98764.88
2022-12-08T11:04:34.307Z,98761.66
2022-12-08T11:07:01.037Z,98759.44
2022-12-08T11:09:48.652Z,98758.38
2022-12-08T11:12:16.640Z,98761.91
2022-12-08T11:14:43.226Z,98756.00
2022-12-08T11:17:14.763Z,98763.44
2022-12-08T11:19:43.745Z,98756.69
2022-12-08T11:22:32.435Z,98758.59
2022-12-08T11:25:08.378Z,98746.72
2022-12-08T11:27:37.616Z,98750.94
2022-12-08T11:30:14.974Z,98745.34
2022-12-08T11:32:46.725Z,98744.44
2022-12-08T11:35:21.448Z,98752.41
2022-12-08T11:37:48.302Z,98744.22
2022-12-08T11:40:21.024Z,98737.06
2022-12-08T11:43:09.510Z,98737.97
2022-12-08T11:45:36.927Z,98731.03
2022-12-08T11:48:06.296Z,98731.47
2022-12-08T11:50:43.391Z,98728.06
2022-12-08T11:53:19.872Z,98720.91
2022-12-08T11:55:54.791Z,98726.16
2022-12-08T11:58:31.152Z,98716.34
2022-12-08T12:00:58.605Z,98715.34
2022-12-08T12:03:38.195Z,98709.91
2022-12-08T12:06:53.736Z,98708.97
2022-12-08T12:09:52.412Z,98701.22
2022-12-08T12:12:51.306Z,98694.97
2022-12-08T12:15:53.527Z,98687.81
2022-12-08T12:18:35.743Z,98693.03
2022-12-08T12:21:12.691Z,98699.88
2022-12-08T12:23:41.783Z,98697.59
2022-12-08T12:26:16.776Z,98688.28
2022-12-08T12:28:46.369Z,98693.50
2022-12-08T12:31:18.106Z,98691.44
2022-12-08T12:33:46.928Z,98685.97
2022-12-08T12:36:14.831Z,98680.28
2022-12-08T12:39:07.767Z,98681.75
2022-12-08T12:42:01.464Z,98674.94
2022-12-08T12:44:27.968Z,98680.16
2022-12-08T12:46:56.322Z,98673.13
2022-12-08T12:49:37.986Z,98678.91
2022-12-08T12:52:10.386Z,98675.41
2022-12-08T12:55:05.121Z,98667.34
2022-12-08T12:57:39.204Z,98650.97
2022-12-08T13:00:05.985Z,98658.59
2022-12-08T13:02:46.485Z,98654.31
2022-12-08T13:05:45.818Z,98660.22
2022-12-08T13:08:24.616Z,98664.66
2022-12-08T13:10:57.296Z,98666.16
2022-12-08T13:13:24.437Z,98668.66
2022-12-08T13:15:57.693Z,98671.91
2022-12-08T13:18:36.471Z,98668.97
2022-12-08T13:21:15.094Z,98671.25
2022-12-08T13:24:09.325Z,98669.66
2022-12-08T13:26:50.126Z,98675.25
2022-12-08T13:29:24.761Z,98669.66
2022-12-08T13:31:54.922Z,98676.25
2022-12-08T13:34:41.649Z,98668.97
2022-12-08T13:37:10.991Z,98668.88
2022-12-08T13:39:40.584Z,98668.09
2022-12-08T13:42:14.263Z,98665.59
2022-12-08T13:47:54.110Z,98670.56
2022-12-08T13:52:59.968Z,98667.50
2022-12-08T13:59:22.502Z,98658.53
2022-12-08T14:01:50.517Z,98652.34
2022-12-08T14:04:42.481Z,98654.31
2022-12-08T14:07:11.791Z,98663.09
2022-12-08T14:09:39.972Z,98664.19
2022-12-08T14:12:28.167Z,98652.13
2022-12-08T14:15:04.156Z,98651.69
2022-12-08T14:17:31.303Z,98652.59
2022-12-08T14:19:57.866Z,98662.72
2022-12-08T14:22:25.052Z,98653.72
2022-12-08T14:24:53.729Z,98658.16
2022-12-08T14:27:24.320Z,98664.50
2022-12-08T14:30:07.822Z,98665.78
2022-12-08T14:32:43.439Z,98656.13
2022-12-08T14:35:09.952Z,98658.16
2022-12-08T14:37:44.110Z,98657.34
2022-12-08T14:40:38.164Z,98654.63
2022-12-08T14:43:07.451Z,98657.94
2022-12-08T14:45:41.334Z,98656.56
2022-12-08T14:48:27.898Z,98663.97
2022-12-08T14:50:54.412Z,98652.69
2022-12-08T14:53:21.092Z,98657.47
2022-12-08T14:55:48.690Z,98658.72
2022-12-08T14:58:24.015Z,98654.84
2022-12-08T15:00:54.544Z,98671.09
2022-12-08T15:03:23.012Z,98668.25
2022-12-08T15:05:56.172Z,98672.03
2022-12-08T15:08:22.894Z,98669.28
2022-12-08T15:11:21.610Z,98667.16
2022-12-08T15:13:51.716Z,98662.72
2022-12-08T15:16:39.402Z,98662.13
2022-12-08T15:19:21.448Z,98662.56
2022-12-08T15:21:48.205Z,98663.94
2022-12-08T15:24:16.829Z,98658.94
2022-12-08T15:26:49.081Z,98666.53
2022-12-08T15:29:27.702Z,98660.41
2022-12-08T15:31:57.693Z,98658.00
2022-12-08T15:34:24.920Z,98663.25
2022-12-08T15:36:53.504Z,98657.25
2022-12-08T15:39:35.740Z,98662.13
2022-12-08T15:42:04.525Z,98659.53
2022-12-08T15:44:32.845Z,98663.16
2022-12-08T15:47:00.142Z,98657.09
2022-12-08T15:49:27.053Z,98658.22
2022-12-08T15:52:01.934Z,98672.78
2022-12-08T15:54:34.630Z,98667.78
2022-12-08T15:59:48.192Z,98661.31
2022-12-08T16:02:22.197Z,98669.41
2022-12-08T16:07:38.277Z,98667.31
2022-12-08T16:10:06.724Z,98671.38
2022-12-08T16:15:58.648Z,98667.84
2022-12-08T16:18:29.062Z,98667.53
2022-12-08T16:21:09.661Z,98666.84
2022-12-08T16:23:43.694Z,98663.34
2022-12-08T16:26:44.197Z,98656.34
2022-12-08T16:29:04.643Z,98660.44
2022-12-08T16:31:31.438Z,98656.31
2022-12-08T16:33:58.224Z,98659.09
2022-12-08T16:36:24.967Z,98655.00
2022-12-08T16:38:51.513Z,98651.94
2022-12-08T16:41:56.739Z,98657.06
2022-12-08T16:44:23.320Z,98657.38
2022-12-08T16:46:49.885Z,98663.41
2022-12-08T16:49:16.526Z,98658.31
2022-12-08T16:51:43.816Z,98661.13
2022-12-08T16:54:10.643Z,98667.16
2022-12-08T16:56:37.305Z,98673.19
2022-12-08T16:59:03.956Z,98666.13
2022-12-08T17:01:31.671Z,98671.13
2022-12-08T17:04:29.778Z,98669.41
2022-12-08T17:06:45.312Z,98670.28
2022-12-08T17:09:11.977Z,98662.47
2022-12-08T17:11:43.086Z,98664.03
2022-12-08T17:14:11.960Z,98667.47
2022-12-08T17:16:38.604Z,98658.19
2022-12-08T17:19:05.415Z,98658.75
2022-12-08T17:21:32.323Z,98654.34
2022-12-08T17:23:58.921Z,98662.00
2022-12-08T17:26:25.476Z,98667.09
2022-12-08T17:29:00.518Z,98652.22
2022-12-08T17:31:30.279Z,98656.44
2022-12-08T17:34:05.616Z,98651.78
2022-12-08T17:36:32.524Z,98656.06
2022-12-08T17:39:00.500Z,98653.94
2022-12-08T17:41:28.363Z,98653.41
2022-12-08T17:43:55.549Z,98655.00
2022-12-08T17:46:23.315Z,98641.59
2022-12-08T17:48:50.003Z,98643.84
2022-12-08T17:51:16.718Z,98637.06
2022-12-08T17:53:44.027Z,98639.31
2022-12-08T17:56:21.308Z,98639.66
2022-12-08T17:58:52.925Z,98642.84
2022-12-08T18:01:22.163Z,98641.44
2022-12-08T18:03:48.821Z,98639.31
2022-12-08T18:06:17.669Z,98645.22
2022-12-08T18:08:44.433Z,98647.94
2022-12-08T18:11:17.068Z,98653.63
2022-12-08T18:13:44.723Z,98639.28
2022-12-08T18:16:11.322Z,98639.84
2022-12-08T18:18:37.971Z,98641.88
2022-12-08T18:21:04.761Z,98638.91
2022-12-08T18:23:31.379Z,98633.84
2022-12-08T18:25:58.021Z,98633.19
2022-12-08T18:28:24.588Z,98634.66
2022-12-08T18:30:51.490Z,98627.59
2022-12-08T18:33:18.155Z,98633.50
2022-12-08T18:35:45.638Z,98624.97
2022-12-08T18:38:12.299Z,98635.41
2022-12-08T18:40:39.190Z,98633.59
2022-12-08T18:43:05.857Z,98634.78
2022-12-08T18:45:36.761Z,98629.91
2022-12-08T18:48:03.624Z,98632.28
2022-12-08T18:50:30.388Z,98627.53
2022-12-08T18:52:57.067Z,98632.88
2022-12-08T18:55:23.632Z,98633.00
2022-12-08T18:57:50.215Z,98636.19
2022-12-08T19:00:18.893Z,98646.50
2022-12-08T19:02:46.005Z,98644.94
2022-12-08T19:05:13.967Z,98641.28
2022-12-08T19:07:42.615Z,98652.66
2022-12-08T19:10:10.644Z,98651.63
2022-12-08T19:12:37.461Z,98651.75
2022-12-08T19:15:04.756Z,98640.75
2022-12-08T19:17:31.735Z,98654.00
2022-12-08T19:19:58.355Z,98654.69
2022-12-08T19:22:25.001Z,98649.72
2022-12-08T19:24:51.576Z,98642.31
2022-12-08T19:27:18.710Z,98641.16
2022-12-08T19:29:45.378Z,98636.38
2022-12-08T19:32:12.108Z,98644.56
2022-12-08T19:34:38.720Z,98639.47
2022-12-08T19:37:06.723Z,98640.00
2022-12-08T19:39:51.646Z,98642.59
2022-12-08T19:42:39.271Z,98639.75
2022-12-08T19:45:19.941Z,98641.59
2022-12-08T19:47:47.522Z,98640.22
2022-12-08T19:50:34.672Z,98634.13
2022-12-08T19:53:02.659Z,98647.63
2022-12-08T19:55:29.512Z,98647.16
2022-12-08T19:57:57.178Z,98647.94
2022-12-08T20:00:24.450Z,98647.03
2022-12-08T20:02:51.437Z,98632.28
2022-12-08T20:05:18.141Z,98640.00
2022-12-08T20:07:44.855Z,98634.75
2022-12-08T20:10:19.711Z,98639.06
2022-12-08T20:12:46.372Z,98633.50
2022-12-08T20:15:14.771Z,98624.88
2022-12-08T20:17:42.892Z,98624.22
2022-12-08T20:20:10.564Z,98630.47
2022-12-08T20:22:37.426Z,98626.13
2022-12-08T20:25:04.296Z,98630.78
2022-12-08T20:27:30.909Z,98633.50
2022-12-08T20:29:57.561Z,98637.38
2022-12-08T20:32:24.179Z,98639.16
2022-12-08T20:34:50.907Z,98635.66
2022-12-08T20:37:17.504Z,98636.44
2022-12-08T20:39:44.200Z,98640.16
2022-12-08T20:42:13.971Z,98633.91
2022-12-08T20:44:44.473Z,98640.16
2022-12-08T20:47:12.298Z,98645.75
2022-12-08T20:49:39.374Z,98643.25
2022-12-08T20:52:06.377Z,98651.09
2022-12-08T20:54:33.125Z,98652.34
2022-12-08T20:57:00.436Z,98653.50
2022-12-08T20:59:27.151Z,98646.25
2022-12-08T21:01:54.460Z,98651.59
2022-12-08T21:04:21.307Z,98649.13
2022-12-08T21:06:48.356Z,98649.56
2022-12-08T21:09:15.048Z,98642.75
2022-12-08T21:11:41.860Z,98655.00
2022-12-08T21:14:08.555Z,98653.28
2022-12-08T21:16:35.321Z,98648.84
2022-12-08T21:19:02.064Z,98642.78
2022-12-08T21:21:28.828Z,98637.09
2022-12-08T21:23:55.588Z,98635.94
2022-12-08T21:26:26.005Z,98633.53
2022-12-08T21:28:58.155Z,98640.00
2022-12-08T21:31:27.032Z,98633.78
2022-12-08T21:33:55.232Z,98632.75
2022-12-08T21:36:22.179Z,98628.88
2022-12-08T21:38:49.422Z,98623.19
2022-12-08T21:41:38.012Z,98623.53
2022-12-08T21:44:06.050Z,98621.84
2022-12-08T21:46:33.594Z,98622.16
2022-12-08T21:49:00.365Z,98620.09
2022-12-08T21:51:27.459Z,98639.63
2022-12-08T21:53:54.751Z,98638.41
2022-12-08T21:56:21.376Z,98630.69
2022-12-08T21:58:48.245Z,98633.22
2022-12-08T22:01:15.042Z,98628.66
2022-12-08T22:03:42.083Z,98634.13
2022-12-08T22:06:11.484Z,98634.34
2022-12-08T22:08:38.808Z,98634.53
2022-12-08T22:11:06.744Z,98620.81
2022-12-08T22:13:39.074Z,98618.41
2022-12-08T22:16:09.459Z,98619.81
2022-12-08T22:18:37.192Z,98613.47
2022-12-08T22:21:10.744Z,98624.66
2022-12-08T22:23:38.408Z,98614.16
2022-12-08T22:26:06.266Z,98620.94
2022-12-08T22:28:35.776Z,98613.47
2022-12-08T22:31:12.088Z,98621.03
2022-12-08T22:33:40.293Z,98609.19
2022-12-08T22:36:10.988Z,98609.34
2022-12-08T22:38:37.898Z,98603.34
2022-12-08T22:41:07.573Z,98615.84
2022-12-08T22:43:34.717Z,98605.50
2022-12-08T22:46:01.609Z,98602.19
2022-12-08T22:48:28.823Z,98591.28
2022-12-08T22:51:00.015Z,98588.88
2022-12-08T22:53:26.874Z,98601.03
2022-12-08T22:55:54.077Z,98598.22
2022-12-08T22:58:20.863Z,98598.22
2022-12-08T23:00:47.832Z,98598.66
2022-12-08T23:03:14.596Z,98592.16
2022-12-08T23:05:41.612Z,98585.81
2022-12-08T23:08:09.328Z,98590.13
2022-12-08T23:10:36.275Z,98587.53
2022-12-08T23:13:04.196Z,98593.19
2022-12-08T23:15:31.654Z,98599.63
2022-12-08T23:17:58.309Z,98589.22
2022-12-08T23:20:24.974Z,98589.22
2022-12-08T23:22:51.873Z,98594.75
2022-12-08T23:25:19.056Z,98606.44
2022-12-08T23:27:46.586Z,98611.81
2022-12-08T23:30:14.013Z,98608.88
2022-12-08T23:32:40.972Z,98620.09
2022-12-08T23:35:08.561Z,98631.56
2022-12-08T23:37:35.282Z,98625.13
2022-12-08T23:40:02.448Z,98613.47
2022-12-08T23:42:30.556Z,98618.63
2022-12-08T23:44:57.549Z,98614.84
2022-12-08T23:47:24.365Z,98613.16
2022-12-08T23:49:51.141Z,98610.19
2022-12-08T23:52:17.731Z,98599.28
2022-12-08T23:54:45.038Z,98599.06
2022-12-08T23:57:11.857Z,98587.84
2022-12-08T23:59:38.694Z,98591.13
